Time;durP1;ratioP1;P1;durP2;ratioP2;P2;SDS_P1;SDS_P2;PMS_P1;PMS_P2;Temp;Humidity;BMP_temperature;BMP_pressure;BME280_temperature;BME280_humidity;BME280_pressure;Samples;Min_cycle;Max_cycle;Signal;HPM_P1;HPM_P2
2022/10/02 07:38:53;;;;;;;0.40;0.40;;;;;;;20.60;31.25;99914.00;510156;26;21073;-95
2022/10/02 07:41:26;;;;;;;0.40;0.40;;;;;;;20.47;31.46;99909.06;4961429;28;20130;-96
2022/10/02 07:44:16;;;;;;;0.40;0.40;;;;;;;20.44;31.58;99918.56;4942004;29;20035;-96
2022/10/02 07:47:12;;;;;;;0.50;0.50;;;;;;;20.34;31.69;99910.38;4939995;28;20377;-96
2022/10/02 07:49:57;;;;;;;0.50;0.50;;;;;;;20.30;31.62;99910.09;4941579;29;20143;-96
2022/10/02 07:52:45;;;;;;;0.60;0.60;;;;;;;20.28;31.67;99917.66;4943498;29;20118;-96
2022/10/02 07:55:21;;;;;;;0.40;0.40;;;;;;;20.13;31.80;99904.00;4947224;29;20082;-96
2022/10/02 07:58:25;;;;;;;0.50;0.50;;;;;;;20.16;31.82;99908.91;4944924;29;20031;-96
2022/10/02 08:01:02;;;;;;;0.50;0.50;;;;;;;20.10;31.75;99907.25;4940440;29;20051;-96
2022/10/02 08:03:37;;;;;;;0.60;0.60;;;;;;;20.05;31.75;99903.41;4926675;29;20397;-96
2022/10/02 08:06:03;;;;;;;0.50;0.50;;;;;;;20.04;31.68;99907.22;4925847;29;20392;-96
2022/10/02 08:08:46;;;;;;;1.10;0.60;;;;;;;19.94;32.09;99899.03;4939567;29;20035;-96
2022/10/02 08:11:15;;;;;;;0.52;0.52;;;;;;;19.95;32.03;99908.78;4921980;29;20027;-96
2022/10/02 08:13:59;;;;;;;0.60;0.60;;;;;;;19.93;32.04;99916.38;4938275;29;20031;-96
2022/10/02 08:16:35;;;;;;;0.80;0.80;;;;;;;19.88;32.07;99910.91;4929935;29;20040;-96
2022/10/02 08:19:02;;;;;;;0.50;0.50;;;;;;;19.88;32.09;99910.91;4916212;29;20039;-96
2022/10/02 08:21:27;;;;;;;0.50;0.50;;;;;;;19.69;32.00;99889.59;4914252;29;20026;-96
2022/10/02 08:24:17;;;;;;;0.50;0.50;;;;;;;19.90;32.30;99922.31;4948933;29;20064;-96
2022/10/02 08:26:47;;;;;;;0.57;0.57;;;;;;;19.83;32.14;99913.59;4945219;28;20034;-96
2022/10/02 08:29:21;;;;;;;0.43;0.43;;;;;;;19.82;32.22;99911.97;4914895;29;20036;-96
2022/10/02 08:31:50;;;;;;;0.50;0.50;;;;;;;19.69;32.22;99905.88;4929044;29;20281;-96
2022/10/02 08:34:17;;;;;;;0.52;0.50;;;;;;;19.69;32.22;99903.16;4931763;29;20437;-96
2022/10/02 08:37:18;;;;;;;0.60;0.55;;;;;;;19.74;32.39;99907.00;4933535;29;20484;-96
2022/10/02 08:40:03;;;;;;;0.70;0.70;;;;;;;19.77;32.44;99911.94;4955959;28;20043;-96
2022/10/02 08:42:46;;;;;;;0.50;0.50;;;;;;;19.72;32.62;99914.56;4931540;29;20035;-96
2022/10/02 08:45:47;;;;;;;0.52;0.50;;;;;;;19.73;32.40;99916.19;4946110;29;20031;-96
2022/10/02 08:48:14;;;;;;;0.70;0.70;;;;;;;19.73;32.31;99916.19;4939996;28;20043;-96
2022/10/02 08:50:51;;;;;;;0.55;0.50;;;;;;;19.70;32.48;99912.94;4947768;28;20027;-96
2022/10/02 08:53:29;;;;;;;0.50;0.50;;;;;;;19.70;32.55;99912.94;4964895;28;20409;-96
2022/10/02 08:56:05;;;;;;;0.52;0.52;;;;;;;19.65;32.51;99918.31;4939958;29;20113;-96
2022/10/02 08:58:49;;;;;;;0.50;0.50;;;;;;;19.63;32.38;99911.53;4941876;29;20031;-96
2022/10/02 09:02:00;;;;;;;0.50;0.50;;;;;;;19.63;32.50;99906.91;4942142;29;20041;-96
2022/10/02 09:04:49;;;;;;;0.55;0.55;;;;;;;19.62;32.72;99905.28;4938955;29;20048;-96
2022/10/02 09:07:40;;;;;;;0.70;0.70;;;;;;;19.80;32.61;99917.66;4944612;29;20148;-96
2022/10/02 09:10:25;;;;;;;0.55;0.50;;;;;;;20.04;32.29;99912.66;4948101;28;20059;-96
2022/10/02 09:12:57;;;;;;;1.00;0.55;;;;;;;20.29;31.83;99911.16;4940459;29;20044;-96
2022/10/02 09:15:36;;;;;;;0.50;0.50;;;;;;;20.47;31.84;99907.16;4951274;29;20023;-96
2022/10/02 09:18:02;;;;;;;0.60;0.60;;;;;;;20.67;31.70;99914.59;4936758;29;20030;-96
2022/10/02 09:20:40;;;;;;;0.60;0.60;;;;;;;20.79;31.78;99907.03;4967656;28;20035;-96
2022/10/02 09:23:27;;;;;;;0.60;0.60;;;;;;;20.83;31.69;99907.31;4963891;28;20044;-96
2022/10/02 09:26:03;;;;;;;0.82;0.80;;;;;;;20.84;31.86;99908.16;4958629;29;20118;-96
2022/10/02 09:33:57;;;;;;;1.17;0.52;;;;;;;20.55;32.07;99905.84;4941590;29;20055;-96
2022/10/02 09:36:56;;;;;;;0.60;0.50;;;;;;;20.45;32.28;99903.91;5001544;23;20056;-96
2022/10/02 09:39:50;;;;;;;0.65;0.65;;;;;;;20.39;32.33;99903.06;5004238;23;20484;-96
2022/10/02 09:42:55;;;;;;;1.27;0.60;;;;;;;20.30;32.50;99901.94;4961280;29;20042;-96
2022/10/02 09:45:59;;;;;;;0.60;0.60;;;;;;;20.23;32.72;99904.06;4962390;29;20430;-96
2022/10/02 13:51:30;;;;;;;1.05;0.50;;;;;;;19.33;34.02;99843.28;1961688;23;20367;-96
2022/10/02 13:54:01;;;;;;;0.57;0.57;;;;;;;19.84;33.98;99917.94;4886954;29;20085;-96
2022/10/02 13:56:53;;;;;;;0.50;0.50;;;;;;;19.86;34.08;99910.38;4891365;29;20084;-96
2022/10/02 14:04:32;;;;;;;0.50;0.50;;;;;;;19.37;34.02;99845.44;4920269;29;20048;-96
2022/10/02 14:07:35;;;;;;;0.70;0.50;;;;;;;19.86;33.93;99915.78;4921847;29;20020;-96
2022/10/02 14:10:31;;;;;;;0.50;0.50;;;;;;;19.31;34.14;99845.41;4932597;29;20028;-96
2022/10/02 14:13:22;;;;;;;0.50;0.47;;;;;;;19.32;33.97;99838.13;4909934;29;20031;-96
2022/10/02 14:16:45;;;;;;;0.43;0.43;;;;;;;19.86;34.09;99921.22;4904729;29;20071;-96
2022/10/02 14:19:34;;;;;;;0.88;0.50;;;;;;;19.27;34.01;99844.31;4866319;29;20040;-96
2022/10/02 14:22:39;;;;;;;0.50;0.50;;;;;;;19.84;34.14;99928.78;4861341;29;20037;-96
2022/10/02 14:25:10;;;;;;;0.60;0.60;;;;;;;19.85;34.19;99927.69;4924451;29;20087;-96
2022/10/02 14:27:54;;;;;;;0.70;0.70;;;;;;;19.38;34.05;99869.56;4934813;29;20025;-96
2022/10/02 14:30:33;;;;;;;0.40;0.40;;;;;;;19.36;34.29;99877.16;4922465;29;20020;-96
2022/10/02 14:33:36;;;;;;;0.43;0.43;;;;;;;19.86;34.08;99945.63;4919644;29;20104;-96
2022/10/02 14:36:34;;;;;;;0.60;0.60;;;;;;;19.57;34.43;99897.09;4930827;29;20035;-96
2022/10/02 14:39:22;;;;;;;0.55;0.55;;;;;;;19.84;34.20;99945.06;4933350;29;20113;-96
2022/10/02 14:42:31;;;;;;;0.85;0.52;;;;;;;19.85;34.12;99946.69;4993678;23;20131;-96
2022/10/02 14:45:27;;;;;;;0.50;0.50;;;;;;;19.83;34.29;99951.53;4940924;29;20044;-97
2022/10/02 14:48:15;;;;;;;0.40;0.40;;;;;;;19.48;34.03;99894.06;4940287;29;20039;-96
2022/10/02 14:50:57;;;;;;;0.80;0.60;;;;;;;19.83;34.24;99943.41;4933728;29;20368;-96
2022/10/02 14:53:47;;;;;;;0.50;0.50;;;;;;;19.83;34.06;99948.84;4919069;29;20100;-96
2022/10/02 14:56:43;;;;;;;1.52;0.50;;;;;;;19.84;34.09;99959.44;4938912;29;20032;-96
2022/10/02 14:59:26;;;;;;;0.40;0.40;;;;;;;19.37;34.35;99897.78;4951305;29;20139;-96
2022/10/02 15:02:09;;;;;;;0.50;0.50;;;;;;;19.82;34.09;99952.66;5014397;23;20320;-96
2022/10/02 15:04:59;;;;;;;0.40;0.40;;;;;;;19.83;34.14;99960.53;4967679;29;20035;-96
2022/10/02 15:07:26;;;;;;;0.88;0.50;;;;;;;19.28;34.25;99886.59;4946973;29;20052;-96
2022/10/02 15:10:08;;;;;;;0.50;0.50;;;;;;;19.30;34.21;99897.97;4936392;29;20083;-96
2022/10/02 15:12:42;;;;;;;0.50;0.50;;;;;;;19.80;34.19;99963.75;4950490;29;20016;-96
2022/10/02 15:15:13;;;;;;;;;;;;;;;19.82;34.08;99956.16;4949143;29;20023;-96
2022/10/02 15:17:59;;;;;;;0.40;0.40;;;;;;;19.23;34.29;99886.53;4943138;29;19919;-96
2022/10/02 15:20:32;;;;;;;0.50;0.50;;;;;;;19.81;34.26;99961.84;4953376;28;20039;-96
2022/10/02 15:23:43;;;;;;;0.70;0.57;;;;;;;19.22;34.39;99887.59;4964293;28;20020;-96
2022/10/02 15:26:29;;;;;;;0.50;0.50;;;;;;;19.79;34.32;99966.72;4943709;29;20031;-96
2022/10/02 15:29:13;;;;;;;0.45;0.45;;;;;;;19.78;34.42;99967.78;4944096;29;20502;-96
2022/10/02 15:32:09;;;;;;;0.50;0.50;;;;;;;19.77;34.38;99971.59;4947365;29;20047;-96
2022/10/02 15:34:38;;;;;;;0.50;0.50;;;;;;;19.77;34.25;99969.69;4941842;29;20056;-96
2022/10/02 15:37:17;;;;;;;0.73;0.50;;;;;;;19.20;34.18;99892.47;4927682;29;20056;-96
2022/10/02 15:40:15;;;;;;;0.52;0.52;;;;;;;19.77;34.25;99968.88;4914510;29;20012;-96
2022/10/02 15:42:49;;;;;;;0.50;0.50;;;;;;;19.19;34.38;99896.25;4952720;29;20036;-96
2022/10/02 15:45:21;;;;;;;0.60;0.60;;;;;;;19.76;34.34;99969.94;4939624;29;20012;-96
2022/10/02 15:48:09;;;;;;;0.60;0.50;;;;;;;19.75;34.24;99968.28;4950833;29;20024;-96
2022/10/02 15:51:09;;;;;;;1.00;0.60;;;;;;;19.75;34.34;99962.88;4938661;28;20028;-96
2022/10/02 15:53:44;;;;;;;1.33;0.47;;;;;;;19.75;34.36;99968.28;4973218;28;20024;-96
2022/10/02 15:59:13;;;;;;;0.82;0.50;;;;;;;19.18;34.17;99900.03;4936791;29;20118;-96
2022/10/02 16:02:08;;;;;;;0.63;0.40;;;;;;;19.17;34.05;99892.97;4949696;29;20024;-96
2022/10/02 16:04:54;;;;;;;0.90;0.60;;;;;;;19.20;34.33;99913.31;4935464;29;20072;-96
2022/10/02 16:07:34;;;;;;;0.68;0.47;;;;;;;19.40;34.24;99931.66;4934575;29;20394;-96
2022/10/02 16:10:23;;;;;;;0.75;0.50;;;;;;;19.26;34.23;99918.50;4924390;29;20114;-96
2022/10/02 16:13:14;;;;;;;0.52;0.50;;;;;;;19.39;34.20;99932.75;4944315;29;20042;-96
2022/10/02 16:16:03;;;;;;;0.68;0.68;;;;;;;19.22;34.23;99911.97;4940200;29;20036;-96
2022/10/02 16:18:32;;;;;;;0.45;0.45;;;;;;;19.70;34.08;99982.59;4921757;29;20906;-96
2022/10/02 16:21:44;;;;;;;0.70;0.40;;;;;;;19.69;34.30;99986.38;4922877;29;20028;-96
2022/10/02 16:24:39;;;;;;;0.50;0.50;;;;;;;19.25;34.24;99919.59;4947936;29;20093;-96
2022/10/02 16:27:34;;;;;;;0.40;0.40;;;;;;;19.67;34.27;99989.34;4926702;29;20040;-96
2022/10/02 16:30:16;;;;;;;0.40;0.40;;;;;;;19.39;34.27;99941.69;4959428;29;20050;-96
2022/10/02 16:33:02;;;;;;;0.50;0.50;;;;;;;19.20;34.24;99922.25;4938508;29;20040;-96
2022/10/02 16:35:39;;;;;;;0.40;0.40;;;;;;;19.65;34.31;99983.38;4943146;29;21074;-96
